sensor_id;sensor_type;location;lat;lon;timestamp;temperature;humidity
15152;DHT22;7676;50.900;6.234;2023-01-08T00:11:15;11.20;99.90
15152;DHT22;7676;50.900;6.234;2023-01-08T00:26:18;12.50;99.90
15152;DHT22;7676;50.900;6.234;2023-01-08T00:41:22;11.30;99.90
15152;DHT22;7676;50.900;6.234;2023-01-08T00:56:25;11.60;99.90
15152;DHT22;7676;50.900;6.234;2023-01-08T01:11:27;11.50;99.90
15152;DHT22;7676;50.900;6.234;2023-01-08T01:26:31;11.70;99.90
15152;DHT22;7676;50.900;6.234;2023-01-08T01:41:44;11.80;99.90
15152;DHT22;7676;50.900;6.234;2023-01-08T01:56:47;11.70;99.90
15152;DHT22;7676;50.900;6.234;2023-01-08T02:27:16;11.60;99.90
15152;DHT22;7676;50.900;6.234;2023-01-08T02:43:09;11.70;99.90
15152;DHT22;7676;50.900;6.234;2023-01-08T02:57:51;11.60;99.90
15152;DHT22;7676;50.900;6.234;2023-01-08T03:13:01;11.60;99.90
15152;DHT22;7676;50.900;6.234;2023-01-08T03:28:14;11.50;99.90
15152;DHT22;7676;50.900;6.234;2023-01-08T03:43:18;11.50;99.90
15152;DHT22;7676;50.900;6.234;2023-01-08T03:58:21;11.20;99.90
15152;DHT22;7676;50.900;6.234;2023-01-08T04:13:24;11.30;99.90
15152;DHT22;7676;50.900;6.234;2023-01-08T04:28:26;11.20;99.90
15152;DHT22;7676;50.900;6.234;2023-01-08T04:43:29;11.30;99.90
15152;DHT22;7676;50.900;6.234;2023-01-08T04:58:33;11.20;99.90
15152;DHT22;7676;50.900;6.234;2023-01-08T05:13:35;11.30;99.90
15152;DHT22;7676;50.900;6.234;2023-01-08T05:28:38;11.60;99.90
15152;DHT22;7676;50.900;6.234;2023-01-08T05:43:41;11.50;99.90
15152;DHT22;7676;50.900;6.234;2023-01-08T05:58:44;11.20;99.90
15152;DHT22;7676;50.900;6.234;2023-01-08T06:13:46;10.20;99.90
15152;DHT22;7676;50.900;6.234;2023-01-08T06:28:49;9.80;99.90
15152;DHT22;7676;50.900;6.234;2023-01-08T06:43:51;10.10;99.90
15152;DHT22;7676;50.900;6.234;2023-01-08T06:58:54;10.30;99.90
15152;DHT22;7676;50.900;6.234;2023-01-08T07:13:57;10.20;99.90
15152;DHT22;7676;50.900;6.234;2023-01-08T07:28:59;10.30;99.90
15152;DHT22;7676;50.900;6.234;2023-01-08T07:44:02;10.30;99.90
15152;DHT22;7676;50.900;6.234;2023-01-08T07:59:05;10.10;99.90
15152;DHT22;7676;50.900;6.234;2023-01-08T08:14:07;10.00;99.90
15152;DHT22;7676;50.900;6.234;2023-01-08T08:29:10;10.10;99.90
15152;DHT22;7676;50.900;6.234;2023-01-08T08:44:13;9.70;99.90
15152;DHT22;7676;50.900;6.234;2023-01-08T08:59:15;9.80;99.90
15152;DHT22;7676;50.900;6.234;2023-01-08T09:14:19;9.90;99.90
15152;DHT22;7676;50.900;6.234;2023-01-08T09:29:22;10.70;99.90
15152;DHT22;7676;50.900;6.234;2023-01-08T09:44:27;10.60;99.90
15152;DHT22;7676;50.900;6.234;2023-01-08T09:59:31;10.70;99.90
15152;DHT22;7676;50.900;6.234;2023-01-08T10:14:36;10.80;99.90
15152;DHT22;7676;50.900;6.234;2023-01-08T10:29:39;11.10;99.90
15152;DHT22;7676;50.900;6.234;2023-01-08T10:44:59;11.40;99.90
15152;DHT22;7676;50.900;6.234;2023-01-08T11:00:04;11.50;99.90
15152;DHT22;7676;50.900;6.234;2023-01-08T11:15:25;11.40;99.90
15152;DHT22;7676;50.900;6.234;2023-01-08T11:30:29;11.50;99.90
15152;DHT22;7676;50.900;6.234;2023-01-08T11:45:54;10.90;99.90
15152;DHT22;7676;50.900;6.234;2023-01-08T12:47:13;12.10;99.90
15152;DHT22;7676;50.900;6.234;2023-01-08T13:02:34;10.90;99.90
15152;DHT22;7676;50.900;6.234;2023-01-08T13:17:37;11.00;99.90
15152;DHT22;7676;50.900;6.234;2023-01-08T13:32:46;10.90;99.90
15152;DHT22;7676;50.900;6.234;2023-01-08T13:47:50;10.90;99.90
15152;DHT22;7676;50.900;6.234;2023-01-08T14:02:52;11.00;99.90
15152;DHT22;7676;50.900;6.234;2023-01-08T14:18:10;10.80;99.90
15152;DHT22;7676;50.900;6.234;2023-01-08T14:33:35;10.70;99.90
15152;DHT22;7676;50.900;6.234;2023-01-08T14:48:41;10.70;99.90
15152;DHT22;7676;50.900;6.234;2023-01-08T15:03:47;11.30;99.90
15152;DHT22;7676;50.900;6.234;2023-01-08T15:18:58;11.40;99.90
15152;DHT22;7676;50.900;6.234;2023-01-08T15:34:02;11.20;99.90
15152;DHT22;7676;50.900;6.234;2023-01-08T15:49:05;10.90;99.90
15152;DHT22;7676;50.900;6.234;2023-01-08T16:04:08;10.90;99.90
15152;DHT22;7676;50.900;6.234;2023-01-08T16:19:11;10.70;99.90
15152;DHT22;7676;50.900;6.234;2023-01-08T16:34:14;10.80;99.90
15152;DHT22;7676;50.900;6.234;2023-01-08T16:49:17;10.80;99.90
15152;DHT22;7676;50.900;6.234;2023-01-08T17:04:20;10.70;99.90
15152;DHT22;7676;50.900;6.234;2023-01-08T17:19:22;10.80;99.90
15152;DHT22;7676;50.900;6.234;2023-01-08T17:34:25;10.90;99.90
15152;DHT22;7676;50.900;6.234;2023-01-08T17:49:28;11.00;99.90
15152;DHT22;7676;50.900;6.234;2023-01-08T18:04:32;10.60;99.90
15152;DHT22;7676;50.900;6.234;2023-01-08T18:19:34;11.00;99.90
15152;DHT22;7676;50.900;6.234;2023-01-08T18:34:37;11.00;99.90
15152;DHT22;7676;50.900;6.234;2023-01-08T18:49:40;11.20;99.90
15152;DHT22;7676;50.900;6.234;2023-01-08T19:04:42;10.90;99.90
15152;DHT22;7676;50.900;6.234;2023-01-08T19:19:45;10.70;99.90
15152;DHT22;7676;50.900;6.234;2023-01-08T19:34:48;10.70;99.90
15152;DHT22;7676;50.900;6.234;2023-01-08T19:49:52;10.80;99.90
15152;DHT22;7676;50.900;6.234;2023-01-08T20:04:57;10.90;99.90
15152;DHT22;7676;50.900;6.234;2023-01-08T20:19:59;10.90;99.90
15152;DHT22;7676;50.900;6.234;2023-01-08T20:35:02;10.90;99.90
15152;DHT22;7676;50.900;6.234;2023-01-08T20:50:06;10.50;99.90
15152;DHT22;7676;50.900;6.234;2023-01-08T21:05:21;10.60;99.90
15152;DHT22;7676;50.900;6.234;2023-01-08T21:20:25;11.20;99.90
15152;DHT22;7676;50.900;6.234;2023-01-08T21:35:28;11.20;99.90
15152;DHT22;7676;50.900;6.234;2023-01-08T21:50:31;10.70;99.90
15152;DHT22;7676;50.900;6.234;2023-01-08T22:05:33;10.60;99.90
15152;DHT22;7676;50.900;6.234;2023-01-08T22:20:36;12.40;99.90
15152;DHT22;7676;50.900;6.234;2023-01-08T22:35:39;10.10;99.90
15152;DHT22;7676;50.900;6.234;2023-01-08T22:50:43;10.00;99.90
15152;DHT22;7676;50.900;6.234;2023-01-08T23:05:45;9.90;99.90
15152;DHT22;7676;50.900;6.234;2023-01-08T23:20:48;9.70;99.90
15152;DHT22;7676;50.900;6.234;2023-01-08T23:35:51;9.60;99.90
15152;DHT22;7676;50.900;6.234;2023-01-08T23:50:53;9.40;99.90
